Appleyard, Washington
Current Conditions -  °F | °C
As of 6:58 PM on Friday 21 Nov 2014 (Local Time) from KEAT Reporting Station
Light Snow Light Snow  
Wind Chill:   Ceiling: 2100
Heat Index:   Visibility: 2mi
Dew Point: -2°   Wind: 0mph
Humidity: 85%   Direction: NA
Pressure: 29.48"   Gusts: NA
Location:  47.3635°N, 120.348°W
Report Text: KEAT 220258Z AUTO 00000KT 2SM -SN BR SCT007 OVC021 00/M02 A2948 RMK AO2 P0000 T00001022
Loading
Personal Weather Stations






























Interactive Weather Map New forecast layout! Learn more

10-Day Weather Forecast

Advertisements
Track Severe Weather on mobile